sensor_id;sensor_type;location;lat;lon;timestamp;pressure;altitude;pressure_sealevel;temperature;humidity
49102;BME280;34913;47.520;19.186;2022-12-18T00:01:21;101275.84;;;-0.96;81.54
49102;BME280;34913;47.520;19.186;2022-12-18T00:03:47;101282.78;;;-0.93;80.86
49102;BME280;34913;47.520;19.186;2022-12-18T00:06:14;101283.59;;;-0.90;80.35
49102;BME280;34913;47.520;19.186;2022-12-18T00:08:40;101295.06;;;-1.03;81.24
49102;BME280;34913;47.520;19.186;2022-12-18T00:11:12;101280.38;;;-1.07;81.42
49102;BME280;34913;47.520;19.186;2022-12-18T00:13:37;101303.72;;;-0.99;80.88
49102;BME280;34913;47.520;19.186;2022-12-18T00:16:05;101311.59;;;-1.04;81.04
49102;BME280;34913;47.520;19.186;2022-12-18T00:18:30;101310.84;;;-1.12;81.33
49102;BME280;34913;47.520;19.186;2022-12-18T00:20:59;101317.09;;;-1.25;81.51
49102;BME280;34913;47.520;19.186;2022-12-18T00:23:26;101326.66;;;-1.27;82.27
49102;BME280;34913;47.520;19.186;2022-12-18T00:25:51;101330.03;;;-1.18;81.85
49102;BME280;34913;47.520;19.186;2022-12-18T00:28:16;101332.63;;;-1.18;81.81
49102;BME280;34913;47.520;19.186;2022-12-18T00:30:42;101339.72;;;-1.29;82.00
49102;BME280;34913;47.520;19.186;2022-12-18T00:33:07;101337.16;;;-1.32;82.54
49102;BME280;34913;47.520;19.186;2022-12-18T00:35:33;101338.88;;;-1.31;82.25
49102;BME280;34913;47.520;19.186;2022-12-18T00:37:58;101325.03;;;-1.33;82.23
49102;BME280;34913;47.520;19.186;2022-12-18T00:40:23;101337.06;;;-1.27;82.60
49102;BME280;34913;47.520;19.186;2022-12-18T00:42:49;101331.09;;;-1.32;81.69
49102;BME280;34913;47.520;19.186;2022-12-18T00:45:20;101329.38;;;-1.33;81.79
49102;BME280;34913;47.520;19.186;2022-12-18T00:47:46;101350.25;;;-1.38;81.75
49102;BME280;34913;47.520;19.186;2022-12-18T00:50:11;101349.38;;;-1.38;82.33
49102;BME280;34913;47.520;19.186;2022-12-18T00:52:37;101351.06;;;-1.33;82.44
49102;BME280;34913;47.520;19.186;2022-12-18T00:55:05;101357.19;;;-1.37;82.02
49102;BME280;34913;47.520;19.186;2022-12-18T00:57:31;101351.97;;;-1.37;82.04
49102;BME280;34913;47.520;19.186;2022-12-18T00:59:56;101358.16;;;-1.47;82.01
49102;BME280;34913;47.520;19.186;2022-12-18T01:02:22;101368.59;;;-1.50;82.22
49102;BME280;34913;47.520;19.186;2022-12-18T01:04:48;101365.25;;;-1.60;82.80
49102;BME280;34913;47.520;19.186;2022-12-18T01:07:13;101372.13;;;-1.54;83.03
49102;BME280;34913;47.520;19.186;2022-12-18T01:09:38;101377.31;;;-1.53;82.73
49102;BME280;34913;47.520;19.186;2022-12-18T01:12:04;101379.03;;;-1.49;82.73
49102;BME280;34913;47.520;19.186;2022-12-18T01:14:30;101373.81;;;-1.49;82.81
49102;BME280;34913;47.520;19.186;2022-12-18T01:16:55;101378.94;;;-1.44;82.73
49102;BME280;34913;47.520;19.186;2022-12-18T01:19:20;101381.53;;;-1.43;82.58
49102;BME280;34913;47.520;19.186;2022-12-18T01:21:46;101385.06;;;-1.47;81.85
49102;BME280;34913;47.520;19.186;2022-12-18T01:24:12;101386.84;;;-1.49;82.66
49102;BME280;34913;47.520;19.186;2022-12-18T01:26:37;101391.06;;;-1.38;82.82
49102;BME280;34913;47.520;19.186;2022-12-18T01:29:02;101378.94;;;-1.44;82.22
49102;BME280;34913;47.520;19.186;2022-12-18T01:31:32;101382.44;;;-1.45;82.27
49102;BME280;34913;47.520;19.186;2022-12-18T01:34:00;101366.97;;;-1.59;82.60
49102;BME280;34913;47.520;19.186;2022-12-18T01:36:27;101399.84;;;-1.49;82.59
49102;BME280;34913;47.520;19.186;2022-12-18T01:38:54;101399.84;;;-1.50;82.69
49102;BME280;34913;47.520;19.186;2022-12-18T01:41:25;101393.78;;;-1.51;82.93
49102;BME280;34913;47.520;19.186;2022-12-18T01:46:20;101409.47;;;-1.55;83.37
49102;BME280;34913;47.520;19.186;2022-12-18T01:48:49;101406.03;;;-1.57;83.32
49102;BME280;34913;47.520;19.186;2022-12-18T01:51:15;101407.75;;;-1.56;83.41
49102;BME280;34913;47.520;19.186;2022-12-18T01:53:41;101414.63;;;-1.52;83.15
49102;BME280;34913;47.520;19.186;2022-12-18T01:56:12;101418.91;;;-1.47;83.11
49102;BME280;34913;47.520;19.186;2022-12-18T01:58:44;101427.53;;;-1.43;82.39
49102;BME280;34913;47.520;19.186;2022-12-18T02:01:11;101422.25;;;-1.35;82.46
49102;BME280;34913;47.520;19.186;2022-12-18T02:03:36;101425.63;;;-1.27;81.89
49102;BME280;34913;47.520;19.186;2022-12-18T02:06:26;101415.28;;;-1.30;81.81
49102;BME280;34913;47.520;19.186;2022-12-18T02:27:54;101439.78;;;-1.51;82.61
49102;BME280;34913;47.520;19.186;2022-12-18T02:30:23;101448.44;;;-1.48;82.76
49102;BME280;34913;47.520;19.186;2022-12-18T02:32:51;101451.88;;;-1.46;82.66
49102;BME280;34913;47.520;19.186;2022-12-18T02:35:23;101451.88;;;-1.46;83.00
49102;BME280;34913;47.520;19.186;2022-12-18T02:37:50;101459.63;;;-1.38;82.63
49102;BME280;34913;47.520;19.186;2022-12-18T02:40:17;101459.59;;;-1.33;81.88
49102;BME280;34913;47.520;19.186;2022-12-18T02:42:42;101462.16;;;-1.30;81.67
49102;BME280;34913;47.520;19.186;2022-12-18T02:45:08;101456.94;;;-1.30;81.38
49102;BME280;34913;47.520;19.186;2022-12-18T02:47:37;101461.31;;;-1.35;81.71
49102;BME280;34913;47.520;19.186;2022-12-18T02:50:14;101463.13;;;-1.41;82.25
49102;BME280;34913;47.520;19.186;2022-12-18T02:53:09;101457.06;;;-1.44;82.78
49102;BME280;34913;47.520;19.186;2022-12-18T03:03:29;101476.31;;;-1.57;82.79
49102;BME280;34913;47.520;19.186;2022-12-18T03:06:03;101471.13;;;-1.62;82.51
49102;BME280;34913;47.520;19.186;2022-12-18T03:08:32;101482.44;;;-1.63;82.50
49102;BME280;34913;47.520;19.186;2022-12-18T03:11:04;101468.59;;;-1.68;82.60
49102;BME280;34913;47.520;19.186;2022-12-18T03:13:39;101504.13;;;-1.62;82.51
49102;BME280;34913;47.520;19.186;2022-12-18T03:16:09;101490.28;;;-1.69;82.57
49102;BME280;34913;47.520;19.186;2022-12-18T03:18:40;101499.78;;;-1.63;82.97
49102;BME280;34913;47.520;19.186;2022-12-18T03:21:09;101499.78;;;-1.62;82.54
49102;BME280;34913;47.520;19.186;2022-12-18T03:23:43;101500.69;;;-1.67;82.54
49102;BME280;34913;47.520;19.186;2022-12-18T03:26:16;101512.81;;;-1.66;82.87
49102;BME280;34913;47.520;19.186;2022-12-18T03:28:47;101513.69;;;-1.66;83.14
49102;BME280;34913;47.520;19.186;2022-12-18T03:31:16;101493.88;;;-1.84;82.64
49102;BME280;34913;47.520;19.186;2022-12-18T03:33:58;101525.06;;;-1.78;82.95
49102;BME280;34913;47.520;19.186;2022-12-18T03:36:24;101518.16;;;-1.80;83.19
49102;BME280;34913;47.520;19.186;2022-12-18T03:38:51;101524.22;;;-1.80;83.29
49102;BME280;34913;47.520;19.186;2022-12-18T03:41:34;101519.06;;;-1.87;83.15
49102;BME280;34913;47.520;19.186;2022-12-18T03:52:28;101528.50;;;-1.71;83.36
49102;BME280;34913;47.520;19.186;2022-12-18T03:54:56;101522.47;;;-1.79;82.52
49102;BME280;34913;47.520;19.186;2022-12-18T03:57:26;101538.03;;;-1.75;82.51
49102;BME280;34913;47.520;19.186;2022-12-18T04:00:00;101536.44;;;-1.89;82.95
49102;BME280;34913;47.520;19.186;2022-12-18T04:02:26;101544.31;;;-2.03;83.59
49102;BME280;34913;47.520;19.186;2022-12-18T04:04:57;101533.97;;;-2.14;83.85
49102;BME280;34913;47.520;19.186;2022-12-18T04:07:24;101547.84;;;-2.12;84.58
49102;BME280;34913;47.520;19.186;2022-12-18T04:09:52;101546.13;;;-2.11;84.64
49102;BME280;34913;47.520;19.186;2022-12-18T04:12:18;101551.31;;;-2.14;83.96
49102;BME280;34913;47.520;19.186;2022-12-18T04:14:44;101552.28;;;-2.32;84.37
49102;BME280;34913;47.520;19.186;2022-12-18T04:17:10;101552.34;;;-2.44;84.88
49102;BME280;34913;47.520;19.186;2022-12-18T04:19:35;101548.00;;;-2.47;85.62
49102;BME280;34913;47.520;19.186;2022-12-18T04:22:01;101558.41;;;-2.48;85.61
49102;BME280;34913;47.520;19.186;2022-12-18T04:24:26;101554.16;;;-2.66;86.10
49102;BME280;34913;47.520;19.186;2022-12-18T04:26:52;101558.53;;;-2.74;86.52
49102;BME280;34913;47.520;19.186;2022-12-18T04:29:17;101555.94;;;-2.81;87.11
49102;BME280;34913;47.520;19.186;2022-12-18T04:31:42;101549.03;;;-2.91;87.24
49102;BME280;34913;47.520;19.186;2022-12-18T04:34:08;101561.16;;;-2.90;87.26
49102;BME280;34913;47.520;19.186;2022-12-18T04:36:33;101563.78;;;-2.96;87.46
49102;BME280;34913;47.520;19.186;2022-12-18T04:38:59;101567.25;;;-3.04;87.99
49102;BME280;34913;47.520;19.186;2022-12-18T04:41:24;101576.75;;;-3.02;88.44
49102;BME280;34913;47.520;19.186;2022-12-18T04:43:49;101563.81;;;-3.08;88.26
49102;BME280;34913;47.520;19.186;2022-12-18T04:46:15;101588.03;;;-2.92;87.88
49102;BME280;34913;47.520;19.186;2022-12-18T04:48:40;101581.09;;;-2.90;87.59
49102;BME280;34913;47.520;19.186;2022-12-18T04:51:06;101588.88;;;-2.93;87.25
49102;BME280;34913;47.520;19.186;2022-12-18T04:53:32;101594.94;;;-2.93;86.67
49102;BME280;34913;47.520;19.186;2022-12-18T04:56:05;101599.25;;;-2.89;87.12
49102;BME280;34913;47.520;19.186;2022-12-18T04:58:31;101599.25;;;-2.86;86.99
49102;BME280;34913;47.520;19.186;2022-12-18T05:00:57;101589.72;;;-2.84;86.68
49102;BME280;34913;47.520;19.186;2022-12-18T05:03:22;101601.84;;;-2.79;86.49
49102;BME280;34913;47.520;19.186;2022-12-18T05:05:50;101595.78;;;-2.83;86.07
49102;BME280;34913;47.520;19.186;2022-12-18T05:08:16;101609.69;;;-2.99;85.85
49102;BME280;34913;47.520;19.186;2022-12-18T05:10:42;101611.44;;;-3.23;87.24
49102;BME280;34913;47.520;19.186;2022-12-18T05:13:07;101614.88;;;-3.25;88.34
49102;BME280;34913;47.520;19.186;2022-12-18T05:15:33;101615.75;;;-3.29;88.96
49102;BME280;34913;47.520;19.186;2022-12-18T05:17:59;101628.72;;;-3.25;88.68
49102;BME280;34913;47.520;19.186;2022-12-18T05:20:25;101614.88;;;-3.25;88.37
49102;BME280;34913;47.520;19.186;2022-12-18T05:22:51;101611.41;;;-3.29;88.03
49102;BME280;34913;47.520;19.186;2022-12-18T05:25:17;101625.28;;;-3.24;88.27
49102;BME280;34913;47.520;19.186;2022-12-18T05:27:44;101631.34;;;-3.22;87.70
49102;BME280;34913;47.520;19.186;2022-12-18T05:30:11;101633.91;;;-3.26;87.31
49102;BME280;34913;47.520;19.186;2022-12-18T05:32:37;101634.78;;;-3.26;87.40
49102;BME280;34913;47.520;19.186;2022-12-18T05:35:02;101636.50;;;-3.28;86.85
49102;BME280;34913;47.520;19.186;2022-12-18T05:37:28;101643.44;;;-3.34;86.67
49102;BME280;34913;47.520;19.186;2022-12-18T05:39:53;101646.88;;;-3.43;87.33
49102;BME280;34913;47.520;19.186;2022-12-18T05:42:19;101641.69;;;-3.45;87.77
49102;BME280;34913;47.520;19.186;2022-12-18T05:44:45;101635.63;;;-3.51;87.87
49102;BME280;34913;47.520;19.186;2022-12-18T05:47:10;101649.47;;;-3.42;87.60
49102;BME280;34913;47.520;19.186;2022-12-18T05:49:35;101636.50;;;-3.35;88.27
49102;BME280;34913;47.520;19.186;2022-12-18T05:52:01;101652.97;;;-3.29;87.90
49102;BME280;34913;47.520;19.186;2022-12-18T05:54:27;101651.25;;;-3.31;87.52
49102;BME280;34913;47.520;19.186;2022-12-18T05:56:53;101656.41;;;-3.41;87.33
49102;BME280;34913;47.520;19.186;2022-12-18T05:59:19;101660.72;;;-3.50;86.72
49102;BME280;34913;47.520;19.186;2022-12-18T06:01:44;101657.25;;;-3.57;86.73
49102;BME280;34913;47.520;19.186;2022-12-18T06:04:10;101658.97;;;-3.60;86.62
49102;BME280;34913;47.520;19.186;2022-12-18T06:06:35;101665.03;;;-3.61;87.27
49102;BME280;34913;47.520;19.186;2022-12-18T06:09:02;101665.00;;;-3.66;86.97
49102;BME280;34913;47.520;19.186;2022-12-18T06:11:34;101665.84;;;-3.81;87.27
49102;BME280;34913;47.520;19.186;2022-12-18T06:13:59;101662.34;;;-3.94;87.58
49102;BME280;34913;47.520;19.186;2022-12-18T06:16:29;101667.50;;;-4.03;88.25
49102;BME280;34913;47.520;19.186;2022-12-18T06:19:03;101664.91;;;-4.01;88.73
49102;BME280;34913;47.520;19.186;2022-12-18T06:21:29;101667.50;;;-4.03;88.17
49102;BME280;34913;47.520;19.186;2022-12-18T06:23:55;101677.03;;;-4.02;89.04
49102;BME280;34913;47.520;19.186;2022-12-18T06:26:21;101679.66;;;-3.91;89.46
49102;BME280;34913;47.520;19.186;2022-12-18T06:28:46;101689.19;;;-3.82;89.16
49102;BME280;34913;47.520;19.186;2022-12-18T06:31:12;101687.47;;;-3.83;88.59
49102;BME280;34913;47.520;19.186;2022-12-18T06:33:38;101696.09;;;-3.84;87.74
49102;BME280;34913;47.520;19.186;2022-12-18T06:36:06;101695.22;;;-3.88;87.16
49102;BME280;34913;47.520;19.186;2022-12-18T06:38:33;101704.75;;;-3.85;87.75
49102;BME280;34913;47.520;19.186;2022-12-18T06:40:59;101706.47;;;-3.83;88.19
49102;BME280;34913;47.520;19.186;2022-12-18T06:43:24;101713.41;;;-3.82;88.25
49102;BME280;34913;47.520;19.186;2022-12-18T06:45:50;101718.59;;;-3.82;88.27
49102;BME280;34913;47.520;19.186;2022-12-18T06:48:20;101723.81;;;-3.76;88.01
49102;BME280;34913;47.520;19.186;2022-12-18T06:50:46;101725.50;;;-3.84;87.63
49102;BME280;34913;47.520;19.186;2022-12-18T06:53:11;101713.38;;;-3.94;86.86
49102;BME280;34913;47.520;19.186;2022-12-18T06:55:37;101723.72;;;-3.97;86.65
49102;BME280;34913;47.520;19.186;2022-12-18T06:58:02;101738.41;;;-4.01;88.07
49102;BME280;34913;47.520;19.186;2022-12-18T07:00:28;101734.13;;;-3.92;88.26
49102;BME280;34913;47.520;19.186;2022-12-18T07:02:53;101746.28;;;-3.78;87.73
49102;BME280;34913;47.520;19.186;2022-12-18T07:05:19;101749.72;;;-3.80;87.13
49102;BME280;34913;47.520;19.186;2022-12-18T07:07:44;101749.63;;;-3.96;87.48
49102;BME280;34913;47.520;19.186;2022-12-18T07:10:10;101747.00;;;-4.06;88.78
49102;BME280;34913;47.520;19.186;2022-12-18T07:12:35;101742.69;;;-4.04;90.05
49102;BME280;34913;47.520;19.186;2022-12-18T07:15:00;101746.22;;;-3.90;90.13
49102;BME280;34913;47.520;19.186;2022-12-18T07:17:26;101755.81;;;-3.77;90.14
49102;BME280;34913;47.520;19.186;2022-12-18T07:19:51;101767.09;;;-3.59;90.34
49102;BME280;34913;47.520;19.186;2022-12-18T07:22:17;101771.50;;;-3.46;90.64
49102;BME280;34913;47.520;19.186;2022-12-18T07:24:42;101774.97;;;-3.40;89.88
49102;BME280;34913;47.520;19.186;2022-12-18T07:27:08;101781.06;;;-3.31;90.11
49102;BME280;34913;47.520;19.186;2022-12-18T07:29:33;101777.59;;;-3.27;89.63
49102;BME280;34913;47.520;19.186;2022-12-18T07:31:59;101773.25;;;-3.27;89.62
49102;BME280;34913;47.520;19.186;2022-12-18T07:34:24;101792.38;;;-3.06;89.34
49102;BME280;34913;47.520;19.186;2022-12-18T07:36:50;101802.78;;;-2.90;88.59
49102;BME280;34913;47.520;19.186;2022-12-18T07:39:15;101805.38;;;-2.96;87.96
49102;BME280;34913;47.520;19.186;2022-12-18T07:41:40;101801.03;;;-3.00;87.69
49102;BME280;34913;47.520;19.186;2022-12-18T07:44:11;101807.97;;;-2.87;88.26
49102;BME280;34913;47.520;19.186;2022-12-18T07:46:37;101804.50;;;-2.93;87.89
49102;BME280;34913;47.520;19.186;2022-12-18T07:49:03;101810.56;;;-2.90;88.14
49102;BME280;34913;47.520;19.186;2022-12-18T07:51:29;101811.44;;;-2.80;88.61
49102;BME280;34913;47.520;19.186;2022-12-18T07:53:54;101820.13;;;-2.67;88.36
49102;BME280;34913;47.520;19.186;2022-12-18T07:56:20;101804.53;;;-2.63;87.69
49102;BME280;34913;47.520;19.186;2022-12-18T07:58:46;101829.69;;;-2.51;87.24
49102;BME280;34913;47.520;19.186;2022-12-18T08:01:12;101819.28;;;-2.53;87.21
49102;BME280;34913;47.520;19.186;2022-12-18T08:03:39;101836.63;;;-2.36;86.92
49102;BME280;34913;47.520;19.186;2022-12-18T08:06:06;101845.28;;;-2.27;86.09
49102;BME280;34913;47.520;19.186;2022-12-18T08:08:33;101837.47;;;-2.46;85.43
49102;BME280;34913;47.520;19.186;2022-12-18T08:10:59;101847.84;;;-2.45;85.93
49102;BME280;34913;47.520;19.186;2022-12-18T08:13:24;101848.75;;;-2.44;85.84
49102;BME280;34913;47.520;19.186;2022-12-18T08:16:03;101856.53;;;-2.38;86.17
49102;BME280;34913;47.520;19.186;2022-12-18T08:18:29;101853.94;;;-2.23;85.99
49102;BME280;34913;47.520;19.186;2022-12-18T08:20:57;101854.81;;;-2.10;85.38
49102;BME280;34913;47.520;19.186;2022-12-18T08:23:22;101848.72;;;-2.06;85.41
49102;BME280;34913;47.520;19.186;2022-12-18T08:25:48;101857.38;;;-2.01;84.79
49102;BME280;34913;47.520;19.186;2022-12-18T08:28:13;101853.06;;;-2.02;83.52
49102;BME280;34913;47.520;19.186;2022-12-18T08:30:41;101859.13;;;-2.06;83.65
49102;BME280;34913;47.520;19.186;2022-12-18T08:33:07;101853.94;;;-2.05;83.97
49102;BME280;34913;47.520;19.186;2022-12-18T08:35:36;101854.78;;;-1.97;84.32
49102;BME280;34913;47.520;19.186;2022-12-18T08:38:02;101857.38;;;-1.87;84.25
49102;BME280;34913;47.520;19.186;2022-12-18T08:40:28;101865.16;;;-1.77;84.18
49102;BME280;34913;47.520;19.186;2022-12-18T08:42:53;101866.84;;;-1.62;83.52
49102;BME280;34913;47.520;19.186;2022-12-18T08:45:37;101857.31;;;-1.57;82.81
49102;BME280;34913;47.520;19.186;2022-12-18T08:48:02;101859.00;;;-1.47;82.22
49102;BME280;34913;47.520;19.186;2022-12-18T08:50:28;101862.50;;;-1.52;80.69
49102;BME280;34913;47.520;19.186;2022-12-18T08:52:53;101871.16;;;-1.52;80.83
49102;BME280;34913;47.520;19.186;2022-12-18T08:55:18;101872.00;;;-1.44;80.70
49102;BME280;34913;47.520;19.186;2022-12-18T08:57:48;101877.13;;;-1.19;79.99
49102;BME280;34913;47.520;19.186;2022-12-18T09:00:14;101878.81;;;-1.01;78.45
49102;BME280;34913;47.520;19.186;2022-12-18T09:02:39;101885.66;;;-0.88;77.24
49102;BME280;34913;47.520;19.186;2022-12-18T09:05:05;101883.91;;;-0.81;77.02
49102;BME280;34913;47.520;19.186;2022-12-18T09:07:30;101883.91;;;-0.88;75.13
49102;BME280;34913;47.520;19.186;2022-12-18T09:09:56;101884.00;;;-1.03;76.15
49102;BME280;34913;47.520;19.186;2022-12-18T09:12:21;101890.94;;;-0.99;76.40
49102;BME280;34913;47.520;19.186;2022-12-18T09:14:47;101889.06;;;-0.74;75.64
49102;BME280;34913;47.520;19.186;2022-12-18T09:17:12;101892.44;;;-0.57;75.02
49102;BME280;34913;47.520;19.186;2022-12-18T09:19:37;101901.91;;;-0.43;74.95
49102;BME280;34913;47.520;19.186;2022-12-18T09:22:03;101903.59;;;-0.32;74.50
49102;BME280;34913;47.520;19.186;2022-12-18T09:24:28;101898.28;;;-0.22;73.36
49102;BME280;34913;47.520;19.186;2022-12-18T09:26:54;101907.78;;;-0.17;73.48
49102;BME280;34913;47.520;19.186;2022-12-18T09:29:22;101895.75;;;-0.33;73.51
49102;BME280;34913;47.520;19.186;2022-12-18T09:31:48;101896.69;;;-0.42;74.33
49102;BME280;34913;47.520;19.186;2022-12-18T09:34:15;101898.28;;;-0.22;73.53
49102;BME280;34913;47.520;19.186;2022-12-18T09:36:40;101897.25;;;-0.03;72.94
49102;BME280;34913;47.520;19.186;2022-12-18T09:39:06;101896.38;;;-0.02;72.95
49102;BME280;34913;47.520;19.186;2022-12-18T09:41:39;101902.31;;;0.15;72.44
49102;BME280;34913;47.520;19.186;2022-12-18T09:44:20;101902.31;;;0.14;71.78
49102;BME280;34913;47.520;19.186;2022-12-18T09:47:10;101903.16;;;0.19;72.40
49102;BME280;34913;47.520;19.186;2022-12-18T09:49:47;101904.13;;;0.09;72.74
49102;BME280;34913;47.520;19.186;2022-12-18T09:52:23;101900.44;;;0.28;72.74
49102;BME280;34913;47.520;19.186;2022-12-18T09:57:23;101892.06;;;0.78;70.15
49102;BME280;34913;47.520;19.186;2022-12-18T10:00:02;101893.91;;;0.69;70.25
49102;BME280;34913;47.520;19.186;2022-12-18T10:02:31;101897.72;;;0.39;70.57
49102;BME280;34913;47.520;19.186;2022-12-18T10:05:07;101901.38;;;0.21;71.41
49102;BME280;34913;47.520;19.186;2022-12-18T10:08:00;101892.75;;;0.13;71.53
49102;BME280;34913;47.520;19.186;2022-12-18T10:13:22;101891.06;;;0.10;71.40
49102;BME280;34913;47.520;19.186;2022-12-18T10:16:12;101883.97;;;0.21;71.07
49102;BME280;34913;47.520;19.186;2022-12-18T10:21:13;101886.25;;;0.53;70.87
49102;BME280;34913;47.520;19.186;2022-12-18T10:27:09;101876.66;;;1.23;66.69
49102;BME280;34913;47.520;19.186;2022-12-18T10:29:37;101864.69;;;1.07;66.65
49102;BME280;34913;47.520;19.186;2022-12-18T10:32:03;101878.50;;;1.17;65.47
49102;BME280;34913;47.520;19.186;2022-12-18T10:34:28;101876.66;;;1.23;66.60
49102;BME280;34913;47.520;19.186;2022-12-18T10:36:54;101872.59;;;1.01;66.43
49102;BME280;34913;47.520;19.186;2022-12-18T10:39:24;101879.66;;;0.96;66.87
49102;BME280;34913;47.520;19.186;2022-12-18T10:41:51;101870.13;;;0.92;66.25
49102;BME280;34913;47.520;19.186;2022-12-18T10:44:23;101876.16;;;0.97;66.67
49102;BME280;34913;47.520;19.186;2022-12-18T10:46:54;101874.13;;;1.19;66.95
49102;BME280;34913;47.520;19.186;2022-12-18T10:49:24;101881.63;;;1.43;65.63
49102;BME280;34913;47.520;19.186;2022-12-18T10:51:51;101871.84;;;1.54;65.83
49102;BME280;34913;47.520;19.186;2022-12-18T10:54:30;101843.88;;;1.59;64.22
49102;BME280;34913;47.520;19.186;2022-12-18T10:57:35;101875.63;;;1.90;62.96
49102;BME280;34913;47.520;19.186;2022-12-18T11:00:29;101890.44;;;1.93;62.83
49102;BME280;34913;47.520;19.186;2022-12-18T11:02:56;101884.63;;;1.74;63.09
49102;BME280;34913;47.520;19.186;2022-12-18T11:05:31;101880.94;;;1.86;63.61
49102;BME280;34913;47.520;19.186;2022-12-18T11:07:59;101881.13;;;1.74;62.09
49102;BME280;34913;47.520;19.186;2022-12-18T11:10:32;101882.13;;;1.68;62.68
49102;BME280;34913;47.520;19.186;2022-12-18T11:13:21;101872.47;;;1.70;62.52
49102;BME280;34913;47.520;19.186;2022-12-18T11:15:48;101871.72;;;1.62;61.79
49102;BME280;34913;47.520;19.186;2022-12-18T11:18:25;101862.25;;;1.55;61.98
49102;BME280;34913;47.520;19.186;2022-12-18T11:20:53;101853.72;;;1.44;62.31
49102;BME280;34913;47.520;19.186;2022-12-18T11:23:21;101861.44;;;1.50;62.40
49102;BME280;34913;47.520;19.186;2022-12-18T11:26:00;101866.03;;;1.91;61.05
49102;BME280;34913;47.520;19.186;2022-12-18T11:31:23;101865.31;;;2.31;59.20
49102;BME280;34913;47.520;19.186;2022-12-18T11:36:34;101859.59;;;2.55;58.27
49102;BME280;34913;47.520;19.186;2022-12-18T11:39:10;101866.16;;;2.33;59.45
49102;BME280;34913;47.520;19.186;2022-12-18T11:41:56;101855.22;;;2.09;59.31
49102;BME280;34913;47.520;19.186;2022-12-18T11:47:40;101847.69;;;2.39;58.96
49102;BME280;34913;47.520;19.186;2022-12-18T11:50:16;101848.16;;;2.59;57.91
49102;BME280;34913;47.520;19.186;2022-12-18T11:52:42;101853.31;;;2.64;57.40
49102;BME280;34913;47.520;19.186;2022-12-18T11:58:25;101842.16;;;2.96;56.88
49102;BME280;34913;47.520;19.186;2022-12-18T12:00:56;101850.63;;;3.07;56.98
49102;BME280;34913;47.520;19.186;2022-12-18T12:23:06;101831.91;;;2.85;56.23
49102;BME280;34913;47.520;19.186;2022-12-18T12:25:40;101831.38;;;3.10;54.94
49102;BME280;34913;47.520;19.186;2022-12-18T12:34:16;101838.38;;;3.46;54.59
49102;BME280;34913;47.520;19.186;2022-12-18T12:36:52;101838.97;;;3.20;54.56
49102;BME280;34913;47.520;19.186;2022-12-18T12:39:27;101828.00;;;3.42;55.14
49102;BME280;34913;47.520;19.186;2022-12-18T12:41:54;101833.47;;;3.68;54.57
49102;BME280;34913;47.520;19.186;2022-12-18T12:44:42;101837.44;;;3.84;54.66
49102;BME280;34913;47.520;19.186;2022-12-18T12:47:38;101844.94;;;4.00;53.70
49102;BME280;34913;47.520;19.186;2022-12-18T12:50:16;101849.41;;;3.60;55.21
49102;BME280;34913;47.520;19.186;2022-12-18T12:52:53;101861.44;;;3.69;55.24
49102;BME280;34913;47.520;19.186;2022-12-18T12:55:27;101849.63;;;3.87;55.35
49102;BME280;34913;47.520;19.186;2022-12-18T12:58:07;101868.44;;;3.70;55.13
49102;BME280;34913;47.520;19.186;2022-12-18T13:00:56;101871.72;;;3.43;56.62
49102;BME280;34913;47.520;19.186;2022-12-18T13:03:41;101870.16;;;3.34;58.00
49102;BME280;34913;47.520;19.186;2022-12-18T13:09:13;101865.16;;;3.60;57.28
49102;BME280;34913;47.520;19.186;2022-12-18T13:11:41;101873.66;;;3.72;57.11
49102;BME280;34913;47.520;19.186;2022-12-18T13:14:27;101877.03;;;3.77;57.01
49102;BME280;34913;47.520;19.186;2022-12-18T13:19:49;101881.63;;;4.03;54.77
49102;BME280;34913;47.520;19.186;2022-12-18T13:22:30;101875.06;;;3.85;55.96
49102;BME280;34913;47.520;19.186;2022-12-18T13:24:57;101885.06;;;4.06;54.61
49102;BME280;34913;47.520;19.186;2022-12-18T13:35:50;101897.81;;;3.86;54.42
49102;BME280;34913;47.520;19.186;2022-12-18T13:38:33;101890.09;;;3.80;54.57
49102;BME280;34913;47.520;19.186;2022-12-18T13:41:01;101887.97;;;3.58;54.42
49102;BME280;34913;47.520;19.186;2022-12-18T13:43:32;101901.78;;;3.67;54.85
49102;BME280;34913;47.520;19.186;2022-12-18T13:46:29;101910.78;;;3.56;55.64
49102;BME280;34913;47.520;19.186;2022-12-18T13:51:24;101911.66;;;3.55;55.97
49102;BME280;34913;47.520;19.186;2022-12-18T13:53:56;101903.94;;;3.49;56.62
49102;BME280;34913;47.520;19.186;2022-12-18T13:56:26;101911.06;;;3.44;57.50
49102;BME280;34913;47.520;19.186;2022-12-18T14:04:30;101918.56;;;3.21;58.56
49102;BME280;34913;47.520;19.186;2022-12-18T14:07:06;101914.53;;;3.04;59.20
49102;BME280;34913;47.520;19.186;2022-12-18T14:09:52;101909.22;;;3.07;59.18
49102;BME280;34913;47.520;19.186;2022-12-18T14:12:24;101912.97;;;2.96;60.29
49102;BME280;34913;47.520;19.186;2022-12-18T14:17:58;101907.41;;;2.68;61.90
49102;BME280;34913;47.520;19.186;2022-12-18T14:20:25;101903.06;;;2.67;61.37
49102;BME280;34913;47.520;19.186;2022-12-18T14:22:51;101915.25;;;2.68;60.84
49102;BME280;34913;47.520;19.186;2022-12-18T14:25:22;101914.72;;;2.50;61.73
49102;BME280;34913;47.520;19.186;2022-12-18T14:30:37;101895.16;;;2.68;60.04
49102;BME280;34913;47.520;19.186;2022-12-18T14:33:14;101916.72;;;2.83;60.11
49102;BME280;34913;47.520;19.186;2022-12-18T14:38:31;101925.00;;;2.63;60.88
49102;BME280;34913;47.520;19.186;2022-12-18T14:41:05;101922.72;;;2.43;62.34
49102;BME280;34913;47.520;19.186;2022-12-18T14:43:36;101929.75;;;2.41;62.27
49102;BME280;34913;47.520;19.186;2022-12-18T14:46:25;101933.19;;;2.44;61.91
49102;BME280;34913;47.520;19.186;2022-12-18T14:48:51;101942.91;;;2.39;62.15
49102;BME280;34913;47.520;19.186;2022-12-18T14:51:25;101928.38;;;2.21;62.84